createdAt,value
2023-05-19T00:00:07.183Z,75.18
2023-05-19T00:00:38.969Z,75.66
2023-05-19T00:01:13.546Z,75.24
2023-05-19T00:01:48.231Z,75.38
2023-05-19T00:02:21.015Z,75.21
2023-05-19T00:02:52.761Z,75.55
2023-05-19T00:03:24.860Z,75.29
2023-05-19T00:03:59.030Z,75.53
2023-05-19T00:04:30.844Z,75.75
2023-05-19T00:05:02.556Z,75.75
2023-05-19T00:05:36.449Z,75.28
2023-05-19T00:06:11.089Z,75.84
2023-05-19T00:06:46.613Z,75.61
2023-05-19T00:07:21.444Z,76.09
2023-05-19T00:07:58.694Z,76.05
2023-05-19T00:08:32.194Z,75.67
2023-05-19T00:09:09.391Z,75.88
2023-05-19T00:09:41.204Z,75.78
2023-05-19T00:10:13.223Z,76.25
2023-05-19T00:10:44.977Z,76.38
2023-05-19T00:11:16.762Z,75.92
2023-05-19T00:11:48.482Z,76.16
2023-05-19T00:12:20.236Z,76.09
2023-05-19T00:12:53.780Z,75.78
2023-05-19T00:13:25.918Z,76.36
2023-05-19T00:13:59.497Z,76.02
2023-05-19T00:14:31.198Z,75.96
2023-05-19T00:15:02.944Z,76.04
2023-05-19T00:15:35.400Z,76.53
2023-05-19T00:16:07.218Z,76.42
2023-05-19T00:16:39.145Z,76.37
2023-05-19T00:17:10.920Z,76.15
2023-05-19T00:17:42.567Z,76.28
2023-05-19T00:18:14.443Z,76.38
2023-05-19T00:18:47.564Z,76.45
2023-05-19T00:19:19.181Z,76.18
2023-05-19T00:19:50.695Z,76.15
2023-05-19T00:20:22.400Z,76.55
2023-05-19T00:20:53.839Z,76.58
2023-05-19T00:21:25.935Z,76.72
2023-05-19T00:21:57.562Z,76.66
2023-05-19T00:22:29.096Z,76.61
2023-05-19T00:23:00.600Z,76.36
2023-05-19T00:23:31.998Z,76.73
2023-05-19T00:24:03.954Z,76.73
2023-05-19T00:24:35.404Z,76.45
2023-05-19T00:25:07.456Z,76.69
2023-05-19T00:25:38.848Z,76.73
2023-05-19T00:26:10.574Z,76.92
2023-05-19T00:26:42.124Z,76.55
2023-05-19T00:27:13.490Z,77.09
2023-05-19T00:27:45.006Z,76.99
2023-05-19T00:28:16.493Z,77.03
2023-05-19T00:28:48.342Z,76.92
2023-05-19T00:29:19.815Z,76.82
2023-05-19T00:29:51.350Z,77.38
2023-05-19T00:30:23.039Z,77.42
2023-05-19T00:30:55.518Z,77.49
2023-05-19T00:31:27.150Z,77.24
2023-05-19T00:31:58.711Z,77.34
2023-05-19T00:32:30.339Z,77.51
2023-05-19T00:33:01.849Z,77.78
2023-05-19T00:33:34.065Z,77.46
2023-05-19T00:34:05.625Z,77.51
2023-05-19T00:34:37.094Z,77.14
2023-05-19T00:35:08.805Z,77.19
2023-05-19T00:35:40.925Z,77.33
2023-05-19T00:36:13.067Z,77.35
2023-05-19T00:36:44.972Z,77.64
2023-05-19T00:37:16.370Z,78.07
2023-05-19T00:37:48.793Z,77.64
2023-05-19T00:38:20.325Z,77.96
2023-05-19T00:38:51.917Z,78.31
2023-05-19T00:39:23.406Z,77.69
2023-05-19T00:39:54.874Z,77.71
2023-05-19T00:40:27.258Z,77.98
2023-05-19T00:40:59.509Z,78.53
2023-05-19T00:41:31.035Z,77.73
2023-05-19T00:42:02.878Z,77.42
2023-05-19T00:42:34.319Z,77.83
2023-05-19T00:43:05.888Z,77.75
2023-05-19T00:43:37.326Z,78.35
2023-05-19T00:44:08.850Z,78.04
2023-05-19T00:44:41.897Z,78.04
2023-05-19T00:45:13.393Z,77.89
2023-05-19T00:45:45.602Z,77.69
2023-05-19T00:46:17.136Z,78.05
2023-05-19T00:46:48.698Z,77.77
2023-05-19T00:47:20.156Z,78.16
2023-05-19T00:47:51.738Z,77.92
2023-05-19T00:48:24.711Z,78.13
2023-05-19T00:48:56.290Z,77.96
2023-05-19T00:49:27.763Z,78.09
2023-05-19T00:49:59.539Z,78.39
2023-05-19T00:50:31.783Z,77.92
2023-05-19T00:51:06.251Z,77.78
2023-05-19T00:51:37.846Z,78.29
2023-05-19T00:52:09.395Z,78.35
2023-05-19T00:52:40.924Z,78.79
2023-05-19T00:53:14.378Z,78.62
2023-05-19T00:53:49.081Z,79.24
2023-05-19T00:54:21.315Z,78.69
2023-05-19T00:54:53.857Z,78.99
2023-05-19T00:55:29.194Z,78.92
2023-05-19T00:56:02.149Z,78.47
2023-05-19T00:56:33.893Z,79.22
2023-05-19T00:57:05.594Z,78.85
2023-05-19T00:57:38.369Z,79.16
2023-05-19T00:58:11.711Z,78.22
2023-05-19T00:58:43.804Z,78.77
2023-05-19T00:59:16.048Z,78.37
2023-05-19T00:59:48.628Z,78.33
2023-05-19T01:00:20.860Z,78.76
2023-05-19T01:00:52.969Z,78.61
2023-05-19T01:01:26.820Z,78.82
2023-05-19T01:01:58.649Z,78.52
2023-05-19T01:02:30.156Z,78.68
2023-05-19T01:03:01.769Z,79.07
2023-05-19T01:03:35.639Z,79.14
2023-05-19T01:04:10.095Z,78.88
2023-05-19T01:04:43.771Z,79.35
2023-05-19T01:05:15.343Z,79.44
2023-05-19T01:05:47.599Z,79.55
2023-05-19T01:06:19.183Z,79.41
2023-05-19T01:06:57.317Z,79.38
2023-05-19T01:07:28.988Z,79.86
2023-05-19T01:08:00.837Z,79.74
2023-05-19T01:08:33.550Z,79.75
2023-05-19T01:09:04.982Z,80.04
2023-05-19T01:09:37.345Z,79.48
2023-05-19T01:10:09.719Z,79.81
2023-05-19T01:10:41.196Z,79.60
2023-05-19T01:11:12.756Z,80.08
2023-05-19T01:11:44.180Z,79.83
2023-05-19T01:12:16.189Z,80.32
2023-05-19T01:12:48.688Z,79.85
2023-05-19T01:13:20.275Z,79.91
2023-05-19T01:13:51.832Z,80.87
2023-05-19T01:14:23.579Z,80.77
2023-05-19T01:14:56.262Z,79.97
2023-05-19T01:15:28.755Z,80.82
2023-05-19T01:16:09.989Z,80.07
2023-05-19T01:16:47.477Z,80.83
2023-05-19T01:17:36.805Z,80.17
2023-05-19T01:18:14.238Z,80.06
2023-05-19T01:19:14.283Z,80.07
2023-05-19T01:19:51.616Z,79.77
2023-05-19T01:20:38.698Z,79.94
2023-05-19T01:21:30.473Z,79.51
2023-05-19T01:22:27.021Z,79.80
2023-05-19T01:23:21.562Z,80.34
2023-05-19T01:24:11.455Z,80.20
2023-05-19T01:25:08.811Z,79.91
2023-05-19T01:26:12.913Z,80.03
2023-05-19T01:27:09.283Z,79.98
2023-05-19T01:28:09.569Z,80.49
2023-05-19T01:29:08.957Z,79.73
2023-05-19T01:30:17.322Z,79.70
2023-05-19T01:30:53.843Z,80.23
2023-05-19T01:31:26.146Z,80.55
2023-05-19T01:32:00.767Z,80.91
2023-05-19T01:32:34.657Z,80.42
2023-05-19T01:33:09.761Z,80.68
2023-05-19T01:33:43.589Z,80.52
2023-05-19T01:34:17.042Z,80.83
2023-05-19T01:34:50.851Z,81.04
2023-05-19T01:35:26.086Z,81.17
2023-05-19T01:35:59.609Z,81.02
2023-05-19T01:36:32.374Z,80.99
2023-05-19T01:37:04.963Z,81.38
2023-05-19T01:37:38.688Z,81.15
2023-05-19T01:38:12.022Z,81.24
2023-05-19T01:38:45.266Z,81.11
2023-05-19T01:39:17.198Z,81.81
2023-05-19T01:39:49.120Z,81.19
2023-05-19T01:40:22.009Z,81.90
2023-05-19T01:40:54.949Z,81.61
2023-05-19T01:41:28.532Z,81.83
2023-05-19T01:42:01.561Z,81.92
2023-05-19T01:42:37.288Z,81.92
2023-05-19T01:43:15.537Z,81.93
2023-05-19T01:43:48.010Z,81.60
2023-05-19T01:44:19.988Z,81.88
2023-05-19T01:44:52.315Z,81.53
2023-05-19T01:45:24.323Z,81.88
2023-05-19T01:45:58.662Z,82.07
2023-05-19T01:46:30.307Z,82.10
2023-05-19T01:47:02.664Z,81.93
2023-05-19T01:47:38.407Z,82.17
2023-05-19T01:48:11.178Z,81.81
2023-05-19T01:48:44.760Z,82.09
2023-05-19T01:49:16.257Z,82.00
2023-05-19T01:49:47.701Z,81.65
2023-05-19T01:50:19.653Z,81.89
2023-05-19T01:50:51.548Z,81.69
2023-05-19T01:51:23.029Z,81.74
2023-05-19T01:51:54.616Z,81.78
2023-05-19T01:52:26.079Z,81.77
2023-05-19T01:52:58.259Z,82.43
2023-05-19T01:53:29.784Z,82.15
2023-05-19T01:54:01.233Z,82.53
2023-05-19T01:54:33.022Z,82.33
2023-05-19T01:55:05.406Z,82.46
2023-05-19T01:55:44.146Z,82.51
2023-05-19T01:56:26.732Z,82.76
2023-05-19T01:57:15.883Z,82.48
2023-05-19T01:58:05.902Z,82.01
2023-05-19T01:58:45.871Z,82.22
2023-05-19T01:59:30.028Z,82.09
2023-05-19T02:00:17.183Z,82.08
2023-05-19T02:01:03.239Z,82.73
2023-05-19T02:01:49.410Z,82.67
2023-05-19T02:02:32.729Z,82.76
2023-05-19T02:03:30.788Z,82.01
2023-05-19T02:04:18.518Z,82.29
2023-05-19T02:04:57.504Z,82.42
2023-05-19T02:05:43.173Z,82.86
2023-05-19T02:06:39.619Z,82.77
2023-05-19T02:07:25.293Z,82.54
2023-05-19T02:08:42.725Z,82.45
2023-05-19T02:09:42.038Z,82.14
2023-05-19T02:10:23.682Z,82.70
2023-05-19T02:11:00.656Z,82.85
2023-05-19T02:11:42.248Z,82.44
2023-05-19T02:12:32.540Z,82.49
2023-05-19T02:13:06.917Z,83.22
2023-05-19T02:13:43.867Z,82.86
2023-05-19T02:14:20.533Z,82.93
2023-05-19T02:15:01.894Z,82.72
2023-05-19T02:15:42.148Z,83.30
2023-05-19T02:16:14.907Z,83.44
2023-05-19T02:16:48.759Z,83.40
2023-05-19T02:17:20.881Z,83.61
2023-05-19T02:17:54.493Z,83.54
2023-05-19T02:18:29.967Z,83.65
2023-05-19T02:19:01.475Z,83.45
2023-05-19T02:19:37.077Z,83.53
2023-05-19T02:20:09.477Z,83.51
2023-05-19T02:20:40.906Z,83.49
2023-05-19T02:21:13.518Z,83.72
2023-05-19T02:21:45.053Z,83.55
2023-05-19T02:22:16.602Z,83.33
2023-05-19T02:22:48.422Z,83.88
2023-05-19T02:23:19.919Z,83.78
2023-05-19T02:23:51.348Z,83.68
2023-05-19T02:24:23.176Z,83.88
2023-05-19T02:24:56.500Z,84.00
2023-05-19T02:25:28.007Z,84.03
2023-05-19T02:25:59.505Z,83.81
2023-05-19T02:26:30.979Z,83.98
2023-05-19T02:27:02.720Z,84.08
2023-05-19T02:27:35.294Z,84.14
2023-05-19T02:28:06.772Z,83.81
2023-05-19T02:28:38.278Z,84.07
2023-05-19T02:29:09.764Z,84.50
2023-05-19T02:29:41.461Z,84.16
2023-05-19T02:30:13.095Z,84.23
2023-05-19T02:30:44.548Z,84.46
2023-05-19T02:31:16.169Z,84.68
2023-05-19T02:31:48.073Z,84.58
2023-05-19T02:32:20.762Z,84.66
2023-05-19T02:32:54.188Z,84.46
2023-05-19T02:33:27.516Z,84.31
2023-05-19T02:33:59.055Z,84.72
2023-05-19T02:34:30.639Z,84.32
2023-05-19T02:35:02.941Z,84.31
2023-05-19T02:35:34.516Z,84.99
2023-05-19T02:36:06.512Z,84.91
2023-05-19T02:36:41.389Z,84.82
2023-05-19T02:37:16.934Z,85.06
2023-05-19T02:37:48.396Z,84.34
2023-05-19T02:38:19.965Z,84.63
2023-05-19T02:38:51.690Z,84.19
2023-05-19T02:39:23.421Z,84.40
2023-05-19T02:39:55.395Z,84.52
2023-05-19T02:40:26.978Z,84.71
2023-05-19T02:40:58.628Z,84.92
2023-05-19T02:41:30.786Z,84.90
2023-05-19T02:42:02.230Z,84.85
2023-05-19T02:42:33.680Z,85.02
2023-05-19T02:43:05.092Z,84.80
2023-05-19T02:43:36.580Z,84.88
2023-05-19T02:44:08.121Z,84.71
2023-05-19T02:44:39.580Z,84.07
2023-05-19T02:45:11.497Z,84.50
2023-05-19T02:45:43.048Z,84.50
2023-05-19T02:46:14.565Z,85.03
2023-05-19T02:46:46.215Z,84.96
2023-05-19T02:47:17.829Z,84.85
2023-05-19T02:47:49.298Z,84.72
2023-05-19T02:48:20.777Z,84.68
2023-05-19T02:48:52.744Z,84.82
2023-05-19T02:49:24.188Z,84.67
2023-05-19T02:49:55.737Z,84.68
2023-05-19T02:50:27.255Z,85.00
2023-05-19T02:50:58.824Z,84.88
2023-05-19T02:51:30.494Z,85.13
2023-05-19T02:52:03.269Z,84.60
2023-05-19T02:52:34.779Z,84.67
2023-05-19T02:53:06.314Z,84.96
2023-05-19T02:53:37.859Z,85.18
2023-05-19T02:54:09.350Z,85.13
2023-05-19T02:54:40.860Z,84.93
2023-05-19T02:55:17.033Z,85.29
2023-05-19T02:55:48.586Z,85.14
2023-05-19T02:56:20.057Z,85.25
2023-05-19T02:56:51.553Z,85.45
2023-05-19T02:57:23.091Z,85.51
2023-05-19T02:57:54.705Z,85.33
2023-05-19T02:58:26.189Z,85.52
2023-05-19T02:58:58.486Z,85.40
2023-05-19T02:59:30.027Z,85.43
2023-05-19T03:00:01.737Z,85.34
2023-05-19T03:00:33.533Z,85.18
2023-05-19T03:01:05.370Z,85.32
2023-05-19T03:01:37.818Z,85.74
2023-05-19T03:02:09.640Z,85.61
2023-05-19T03:02:41.418Z,85.77
2023-05-19T03:03:13.823Z,85.87
2023-05-19T03:03:45.494Z,85.64
2023-05-19T03:04:20.110Z,85.92
2023-05-19T03:04:51.583Z,85.77
2023-05-19T03:05:23.005Z,86.08
2023-05-19T03:05:54.688Z,85.95
2023-05-19T03:06:26.225Z,85.83
2023-05-19T03:06:57.778Z,85.86
2023-05-19T03:07:29.546Z,85.90
2023-05-19T03:08:01.067Z,85.72
2023-05-19T03:08:32.601Z,85.95
2023-05-19T03:09:04.056Z,85.98
2023-05-19T03:09:37.280Z,85.96
2023-05-19T03:10:09.109Z,86.15
2023-05-19T03:10:40.641Z,86.06
2023-05-19T03:11:12.070Z,86.15
2023-05-19T03:11:43.536Z,85.89
2023-05-19T03:12:15.187Z,86.06
2023-05-19T03:12:46.623Z,86.13
2023-05-19T03:13:18.128Z,85.77
2023-05-19T03:13:49.597Z,86.15
2023-05-19T03:14:23.873Z,86.41
2023-05-19T03:14:55.820Z,86.07
2023-05-19T03:15:27.306Z,86.14
2023-05-19T03:15:59.254Z,86.34
2023-05-19T03:16:31.389Z,86.26
2023-05-19T03:17:03.293Z,86.35
2023-05-19T03:17:36.271Z,86.22
2023-05-19T03:18:07.935Z,86.28
2023-05-19T03:18:39.539Z,85.83
2023-05-19T03:19:11.118Z,86.11
2023-05-19T03:19:42.675Z,86.59
2023-05-19T03:20:15.818Z,86.18
2023-05-19T03:20:47.268Z,86.20
2023-05-19T03:21:18.817Z,86.12
2023-05-19T03:21:50.824Z,86.43
2023-05-19T03:22:22.276Z,86.41
2023-05-19T03:22:53.698Z,86.25
2023-05-19T03:23:26.478Z,86.09
2023-05-19T03:23:57.970Z,85.92
2023-05-19T03:24:29.555Z,86.00
2023-05-19T03:25:01.046Z,85.91
2023-05-19T03:25:32.479Z,86.16
2023-05-19T03:26:04.267Z,85.95
2023-05-19T03:26:35.869Z,86.22
2023-05-19T03:27:07.307Z,86.38
2023-05-19T03:27:38.800Z,85.90
2023-05-19T03:28:10.277Z,85.89
2023-05-19T03:28:41.967Z,86.05
2023-05-19T03:29:13.463Z,85.96
2023-05-19T03:29:44.984Z,86.17
2023-05-19T03:30:16.525Z,86.24
2023-05-19T03:30:50.706Z,86.16
2023-05-19T03:31:22.271Z,85.88
2023-05-19T03:31:53.783Z,85.80
2023-05-19T03:32:25.570Z,86.18
2023-05-19T03:32:57.250Z,86.09
2023-05-19T03:33:29.916Z,85.96
2023-05-19T03:34:02.127Z,86.48
2023-05-19T03:34:33.862Z,85.99
2023-05-19T03:35:05.935Z,86.01
2023-05-19T03:35:37.480Z,86.27
2023-05-19T03:36:09.055Z,86.24
2023-05-19T03:36:40.557Z,86.54
2023-05-19T03:37:12.930Z,86.69
2023-05-19T03:37:44.430Z,86.21
2023-05-19T03:38:16.104Z,86.38
2023-05-19T03:38:47.557Z,86.50
2023-05-19T03:39:19.886Z,86.70
2023-05-19T03:39:51.386Z,86.52
2023-05-19T03:40:23.032Z,86.74
2023-05-19T03:40:54.619Z,87.11
2023-05-19T03:41:26.108Z,86.64
2023-05-19T03:41:57.563Z,87.11
2023-05-19T03:42:29.048Z,87.06
2023-05-19T03:43:01.175Z,87.01
2023-05-19T03:43:32.645Z,87.13
2023-05-19T03:44:04.293Z,86.97
2023-05-19T03:44:35.806Z,86.83
2023-05-19T03:45:07.807Z,86.89
2023-05-19T03:45:39.324Z,87.17
2023-05-19T03:46:10.860Z,87.06
2023-05-19T03:46:42.428Z,87.08
2023-05-19T03:47:13.892Z,86.77
2023-05-19T03:47:46.731Z,87.40
2023-05-19T03:48:20.460Z,86.87
2023-05-19T03:48:52.785Z,87.13
2023-05-19T03:49:24.298Z,87.15
2023-05-19T03:49:56.049Z,87.14
2023-05-19T03:50:29.072Z,87.18
2023-05-19T03:51:00.542Z,87.18
2023-05-19T03:51:32.161Z,87.00
2023-05-19T03:52:03.966Z,87.01
2023-05-19T03:52:36.279Z,87.17
2023-05-19T03:53:08.180Z,87.24
2023-05-19T03:53:39.783Z,86.79
2023-05-19T03:54:11.262Z,87.44
2023-05-19T03:54:43.186Z,87.67
2023-05-19T03:55:14.839Z,87.45
2023-05-19T03:55:47.592Z,87.14
2023-05-19T03:56:20.800Z,86.96
2023-05-19T03:56:52.424Z,87.44
2023-05-19T03:57:23.973Z,87.27
2023-05-19T03:57:56.646Z,87.24
2023-05-19T03:58:30.081Z,87.38
2023-05-19T03:59:01.582Z,87.27
2023-05-19T03:59:33.274Z,87.45
2023-05-19T04:00:09.067Z,87.54
2023-05-19T04:00:40.857Z,87.42
2023-05-19T04:01:12.398Z,87.49
2023-05-19T04:01:43.872Z,87.21
2023-05-19T04:02:16.638Z,87.32
2023-05-19T04:02:48.683Z,87.31
2023-05-19T04:03:21.039Z,87.52
2023-05-19T04:03:52.749Z,87.77
2023-05-19T04:04:24.297Z,87.61
2023-05-19T04:04:56.102Z,87.71
2023-05-19T04:05:27.839Z,88.20
2023-05-19T04:05:59.336Z,87.65
2023-05-19T04:06:31.122Z,87.81
2023-05-19T04:07:02.863Z,87.61
2023-05-19T04:07:34.374Z,87.66
2023-05-19T04:08:06.190Z,88.05
2023-05-19T04:08:37.764Z,87.18
2023-05-19T04:09:14.301Z,87.62
2023-05-19T04:09:46.224Z,87.62
2023-05-19T04:10:18.961Z,87.80
2023-05-19T04:10:50.485Z,88.32
2023-05-19T04:11:22.007Z,88.33
2023-05-19T04:11:53.607Z,87.84
2023-05-19T04:12:25.284Z,87.52
2023-05-19T04:12:56.919Z,87.63
2023-05-19T04:13:28.421Z,87.99
2023-05-19T04:14:00.160Z,88.09
2023-05-19T04:14:31.627Z,87.58
2023-05-19T04:15:03.298Z,87.92
2023-05-19T04:15:34.995Z,88.04
2023-05-19T04:16:07.336Z,87.85
2023-05-19T04:16:38.944Z,87.93
2023-05-19T04:17:10.683Z,87.79
2023-05-19T04:17:42.635Z,88.29
2023-05-19T04:18:14.278Z,88.18
2023-05-19T04:18:46.416Z,88.17
2023-05-19T04:19:18.203Z,87.96
2023-05-19T04:19:49.685Z,88.75
2023-05-19T04:20:21.271Z,88.28
2023-05-19T04:20:52.730Z,88.53
2023-05-19T04:21:24.270Z,88.66
2023-05-19T04:21:57.012Z,88.12
2023-05-19T04:22:28.506Z,88.22
2023-05-19T04:23:00.036Z,88.44
2023-05-19T04:23:32.617Z,88.50
2023-05-19T04:24:06.350Z,88.54
2023-05-19T04:24:37.928Z,88.22
2023-05-19T04:25:09.728Z,87.83
2023-05-19T04:25:42.215Z,88.11
2023-05-19T04:26:14.980Z,88.56
2023-05-19T04:26:47.385Z,88.45
2023-05-19T04:27:19.001Z,88.55
2023-05-19T04:27:50.608Z,88.48
2023-05-19T04:28:23.964Z,88.41
2023-05-19T04:28:56.572Z,88.20
2023-05-19T04:29:29.541Z,87.98
2023-05-19T04:30:01.031Z,88.40
2023-05-19T04:30:33.482Z,88.46
2023-05-19T04:31:10.590Z,88.29
2023-05-19T04:31:42.424Z,88.70
2023-05-19T04:32:17.526Z,88.87
2023-05-19T04:32:52.117Z,88.20
2023-05-19T04:33:23.684Z,88.57
2023-05-19T04:33:55.172Z,88.32
2023-05-19T04:34:28.661Z,88.68
2023-05-19T04:35:00.306Z,88.60
2023-05-19T04:35:31.856Z,89.15
2023-05-19T04:36:08.397Z,88.78
2023-05-19T04:36:39.890Z,88.72
2023-05-19T04:37:16.821Z,88.91
2023-05-19T04:37:48.540Z,88.93
2023-05-19T04:38:20.192Z,88.95
2023-05-19T04:38:54.783Z,88.95
2023-05-19T04:39:26.190Z,88.90
2023-05-19T04:39:57.626Z,89.00
2023-05-19T04:40:31.102Z,88.92
2023-05-19T04:41:06.327Z,89.34
2023-05-19T04:41:40.352Z,89.27
2023-05-19T04:42:12.211Z,89.34
2023-05-19T04:42:45.703Z,89.55
2023-05-19T04:43:18.069Z,89.07
2023-05-19T04:43:50.061Z,89.27
2023-05-19T04:44:21.560Z,89.29
2023-05-19T04:44:53.035Z,89.39
2023-05-19T04:45:26.069Z,89.27
2023-05-19T04:45:58.281Z,89.46
2023-05-19T04:46:30.282Z,89.77
2023-05-19T04:47:02.142Z,89.83
2023-05-19T04:47:36.746Z,89.71
2023-05-19T04:48:08.756Z,89.93
2023-05-19T04:48:40.981Z,89.95
2023-05-19T04:49:12.575Z,89.58
2023-05-19T04:49:44.005Z,89.38
2023-05-19T04:50:16.353Z,89.66
2023-05-19T04:50:48.963Z,89.84
2023-05-19T04:51:21.119Z,89.52
2023-05-19T04:51:55.511Z,89.69
2023-05-19T04:52:27.824Z,89.77
2023-05-19T04:52:59.312Z,89.39
2023-05-19T04:53:31.275Z,89.40
2023-05-19T04:54:03.294Z,89.65
2023-05-19T04:54:35.507Z,89.73
2023-05-19T04:55:07.653Z,89.43
2023-05-19T04:55:39.186Z,89.46
2023-05-19T04:56:13.742Z,89.55
2023-05-19T04:56:45.186Z,89.57
2023-05-19T04:57:16.629Z,89.38
2023-05-19T04:57:48.000Z,89.79
2023-05-19T04:58:19.748Z,89.78
2023-05-19T04:58:51.447Z,89.67
2023-05-19T04:59:23.259Z,89.87
2023-05-19T04:59:59.794Z,89.35
2023-05-19T05:00:31.660Z,89.96
2023-05-19T05:01:03.822Z,89.96
2023-05-19T05:01:40.204Z,90.13
2023-05-19T05:02:12.104Z,90.08
2023-05-19T05:02:43.917Z,89.53
2023-05-19T05:03:16.371Z,89.75
2023-05-19T05:03:47.843Z,89.41
2023-05-19T05:04:22.005Z,89.74
2023-05-19T05:04:54.452Z,89.70
2023-05-19T05:05:25.942Z,89.63
2023-05-19T05:05:58.595Z,89.81
2023-05-19T05:06:31.628Z,89.66
2023-05-19T05:07:03.257Z,89.54
2023-05-19T05:07:34.810Z,89.96
2023-05-19T05:08:07.023Z,89.78
2023-05-19T05:08:40.453Z,89.39
2023-05-19T05:09:11.896Z,89.75
2023-05-19T05:09:43.310Z,89.56
2023-05-19T05:10:15.284Z,89.98
2023-05-19T05:10:46.801Z,90.11
2023-05-19T05:11:18.454Z,89.90
2023-05-19T05:11:51.468Z,90.09
2023-05-19T05:12:23.459Z,90.11
2023-05-19T05:12:55.257Z,89.96
2023-05-19T05:13:27.021Z,90.00
2023-05-19T05:13:58.658Z,89.62
2023-05-19T05:14:30.395Z,89.76
2023-05-19T05:15:02.159Z,89.77
2023-05-19T05:15:35.478Z,89.71
2023-05-19T05:16:08.433Z,89.72
2023-05-19T05:16:40.752Z,89.57
2023-05-19T05:17:13.057Z,89.33
2023-05-19T05:17:45.114Z,89.39
2023-05-19T05:18:16.833Z,89.65
2023-05-19T05:18:48.589Z,88.96
2023-05-19T05:19:22.155Z,89.28
2023-05-19T05:19:54.090Z,89.08
2023-05-19T05:20:26.426Z,89.03
2023-05-19T05:20:58.062Z,89.03
2023-05-19T05:21:29.693Z,89.40
2023-05-19T05:22:01.564Z,89.60
2023-05-19T05:22:33.592Z,89.99
2023-05-19T05:23:05.314Z,89.63
2023-05-19T05:23:37.020Z,89.39
2023-05-19T05:24:09.410Z,89.12
2023-05-19T05:24:41.062Z,89.35
2023-05-19T05:25:13.392Z,89.79
2023-05-19T05:25:46.961Z,90.01
2023-05-19T05:26:20.197Z,89.19
2023-05-19T05:26:51.927Z,89.38
2023-05-19T05:27:23.434Z,88.83
2023-05-19T05:27:54.866Z,89.22
2023-05-19T05:28:26.280Z,89.23
2023-05-19T05:28:57.721Z,89.30
2023-05-19T05:29:29.113Z,89.04
2023-05-19T05:30:00.624Z,90.17
2023-05-19T05:30:34.003Z,90.38
2023-05-19T05:31:05.515Z,90.01
2023-05-19T05:31:37.608Z,89.31
2023-05-19T05:32:09.131Z,89.71
2023-05-19T05:32:40.885Z,89.54
2023-05-19T05:33:12.478Z,89.54
2023-05-19T05:33:44.601Z,89.42
2023-05-19T05:34:16.290Z,89.86
2023-05-19T05:34:47.765Z,89.98
2023-05-19T05:35:22.166Z,89.64
2023-05-19T05:35:53.610Z,90.39
2023-05-19T05:36:25.107Z,90.34
2023-05-19T05:36:56.477Z,89.98
2023-05-19T05:37:27.885Z,90.17
2023-05-19T05:37:59.854Z,90.24
2023-05-19T05:38:31.403Z,89.87
2023-05-19T05:39:02.888Z,89.69
2023-05-19T05:39:34.860Z,90.19
2023-05-19T05:40:07.085Z,89.65
2023-05-19T05:40:38.550Z,90.16
2023-05-19T05:41:09.985Z,89.79
2023-05-19T05:41:41.421Z,90.04
2023-05-19T05:42:12.843Z,89.71
2023-05-19T05:42:44.354Z,89.74
2023-05-19T05:43:15.783Z,89.69
2023-05-19T05:43:47.196Z,89.63
2023-05-19T05:44:18.631Z,89.10
2023-05-19T05:44:50.040Z,90.12
2023-05-19T05:45:23.102Z,90.13
2023-05-19T05:45:54.525Z,90.11
2023-05-19T05:46:26.065Z,89.94
2023-05-19T05:46:57.928Z,90.03
2023-05-19T05:47:29.520Z,90.26
2023-05-19T05:48:01.326Z,90.14
2023-05-19T05:48:33.167Z,90.17
2023-05-19T05:49:04.797Z,90.17
2023-05-19T05:49:38.142Z,90.77
2023-05-19T05:50:10.688Z,90.85
2023-05-19T05:50:44.512Z,89.99
2023-05-19T05:51:16.277Z,90.26
2023-05-19T05:51:54.579Z,90.16
2023-05-19T05:52:35.840Z,90.59
2023-05-19T05:53:08.890Z,90.31
2023-05-19T05:53:49.679Z,90.45
2023-05-19T05:54:24.846Z,90.17
2023-05-19T05:54:56.880Z,89.77
2023-05-19T05:55:28.703Z,90.11
2023-05-19T05:56:00.406Z,89.82
2023-05-19T05:56:33.759Z,89.84
2023-05-19T05:57:05.664Z,89.35
2023-05-19T05:57:37.121Z,89.86
2023-05-19T05:58:11.037Z,89.24
2023-05-19T05:58:42.451Z,89.26
2023-05-19T05:59:13.895Z,89.18
2023-05-19T05:59:47.009Z,89.50
2023-05-19T06:00:19.218Z,89.57
2023-05-19T06:00:51.530Z,89.18
2023-05-19T06:01:23.914Z,89.19
2023-05-19T06:01:55.436Z,89.05
2023-05-19T06:02:28.303Z,89.18
2023-05-19T06:02:59.968Z,88.89
2023-05-19T06:03:31.950Z,88.62
2023-05-19T06:04:03.592Z,88.47
2023-05-19T06:04:34.971Z,88.51
2023-05-19T06:05:06.651Z,89.27
2023-05-19T06:05:38.342Z,89.55
2023-05-19T06:06:10.726Z,89.46
2023-05-19T06:06:42.170Z,89.69
2023-05-19T06:07:13.562Z,90.52
2023-05-19T06:07:45.097Z,90.52
2023-05-19T06:08:17.715Z,90.37
2023-05-19T06:08:49.255Z,90.25
2023-05-19T06:09:20.668Z,90.33
2023-05-19T06:09:52.118Z,90.18
2023-05-19T06:10:23.529Z,90.33
2023-05-19T06:10:55.032Z,90.19
2023-05-19T06:11:26.537Z,90.63
2023-05-19T06:11:59.064Z,91.09
2023-05-19T06:12:30.696Z,90.78
2023-05-19T06:13:02.101Z,90.50
2023-05-19T06:13:34.197Z,90.28
2023-05-19T06:14:05.744Z,88.92
2023-05-19T06:14:37.193Z,89.31
2023-05-19T06:15:09.214Z,88.93
2023-05-19T06:15:41.351Z,88.66
2023-05-19T06:16:12.947Z,88.47
2023-05-19T06:16:44.419Z,88.69
2023-05-19T06:17:16.391Z,88.94
2023-05-19T06:17:47.884Z,89.02
2023-05-19T06:18:19.368Z,88.32
2023-05-19T06:18:50.898Z,88.87
2023-05-19T06:19:22.388Z,88.56
2023-05-19T06:19:54.444Z,87.93
2023-05-19T06:20:26.297Z,88.05
2023-05-19T06:20:57.865Z,87.73
2023-05-19T06:21:29.348Z,87.87
2023-05-19T06:22:00.847Z,87.59
2023-05-19T06:22:32.597Z,87.89
2023-05-19T06:23:04.048Z,88.04
2023-05-19T06:23:36.127Z,88.39
2023-05-19T06:24:07.566Z,88.00
2023-05-19T06:24:39.714Z,87.89
2023-05-19T06:25:11.229Z,87.53
2023-05-19T06:25:42.727Z,87.09
2023-05-19T06:26:15.230Z,87.40
2023-05-19T06:26:46.733Z,86.57
2023-05-19T06:27:18.168Z,87.00
2023-05-19T06:27:49.737Z,86.99
2023-05-19T06:28:21.135Z,86.80
2023-05-19T06:28:52.620Z,86.54
2023-05-19T06:29:24.038Z,86.62
2023-05-19T06:29:55.472Z,86.51
2023-05-19T06:30:26.910Z,87.21
2023-05-19T06:30:58.558Z,87.42
2023-05-19T06:31:30.038Z,86.88
2023-05-19T06:32:01.598Z,86.45
2023-05-19T06:32:32.976Z,86.01
2023-05-19T06:33:04.443Z,85.53
2023-05-19T06:33:35.865Z,85.82
2023-05-19T06:34:07.246Z,85.86
2023-05-19T06:34:40.403Z,86.09
2023-05-19T06:35:11.764Z,86.00
2023-05-19T06:35:43.172Z,85.71
2023-05-19T06:36:14.615Z,86.05
2023-05-19T06:36:46.114Z,85.96
2023-05-19T06:37:19.647Z,86.62
2023-05-19T06:37:51.304Z,86.41
2023-05-19T06:38:22.742Z,86.23
2023-05-19T06:38:54.129Z,85.92
2023-05-19T06:39:26.233Z,85.62
2023-05-19T06:39:57.729Z,84.44
2023-05-19T06:40:29.273Z,84.60
2023-05-19T06:41:00.669Z,83.83
2023-05-19T06:41:32.206Z,83.46
2023-05-19T06:42:03.931Z,83.30
2023-05-19T06:42:35.394Z,84.17
2023-05-19T06:43:06.960Z,84.18
2023-05-19T06:43:38.521Z,84.36
2023-05-19T06:44:10.003Z,84.01
2023-05-19T06:44:41.432Z,83.91
2023-05-19T06:45:13.029Z,83.56
2023-05-19T06:45:44.461Z,82.90
2023-05-19T06:46:17.691Z,83.02
2023-05-19T06:46:49.199Z,82.33
2023-05-19T06:47:20.664Z,82.52
2023-05-19T06:47:52.281Z,82.24
2023-05-19T06:48:23.853Z,82.30
2023-05-19T06:48:55.287Z,82.06
2023-05-19T06:49:29.311Z,82.48
2023-05-19T06:50:00.747Z,82.26
2023-05-19T06:50:32.318Z,82.25
2023-05-19T06:51:04.455Z,81.18
2023-05-19T06:51:35.886Z,80.75
2023-05-19T06:52:07.257Z,81.14
2023-05-19T06:52:38.627Z,80.82
2023-05-19T06:53:10.141Z,79.96
2023-05-19T06:53:41.815Z,79.81
2023-05-19T06:54:15.927Z,80.30
2023-05-19T06:54:48.762Z,80.06
2023-05-19T06:55:20.262Z,79.95
2023-05-19T06:55:59.381Z,80.03
2023-05-19T06:56:31.514Z,80.87
2023-05-19T06:57:03.896Z,80.75
2023-05-19T06:57:36.040Z,80.73
2023-05-19T06:58:07.946Z,80.75
2023-05-19T06:58:39.504Z,80.50
2023-05-19T06:59:10.965Z,79.92
2023-05-19T06:59:43.508Z,79.03
2023-05-19T07:00:18.317Z,78.99
2023-05-19T07:00:51.291Z,78.20
2023-05-19T07:01:22.895Z,77.54
2023-05-19T07:01:54.332Z,77.33
2023-05-19T07:02:25.876Z,77.79
2023-05-19T07:02:57.408Z,78.10
2023-05-19T07:03:30.980Z,78.13
2023-05-19T07:04:02.497Z,78.00
2023-05-19T07:04:34.511Z,77.94
2023-05-19T07:05:06.171Z,78.52
2023-05-19T07:05:37.558Z,78.39
2023-05-19T07:06:09.047Z,78.52